Time;durP1;ratioP1;P1;durP2;ratioP2;P2;SDS_P1;SDS_P2;PMS_P1;PMS_P2;Temp;Humidity;BMP_temperature;BMP_pressure;BME280_temperature;BME280_humidity;BME280_pressure;Samples;Min_cycle;Max_cycle;Signal;HPM_P1;HPM_P2
2023/04/02 00:02:55;;;;;;;1.80;1.50;;;;;;;;;;8305523;28;20094;-64
2023/04/02 00:07:15;;;;;;;4.32;1.70;;;;;;;;;;8305558;28;20280;-64
2023/04/02 00:11:26;;;;;;;1.48;1.38;;;;;;;;;;8305301;28;20362;-64
2023/04/02 00:15:26;;;;;;;1.40;1.30;;;;;;;;;;8307099;28;20045;-64
2023/04/02 00:19:40;;;;;;;1.02;1.02;;;;;;;;;;8305821;28;20030;-64
2023/04/02 00:23:42;;;;;;;1.42;1.17;;;;;;;;;;8296245;28;20033;-64
2023/04/02 00:27:42;;;;;;;1.25;1.10;;;;;;;;;;8304290;28;20021;-64
2023/04/02 00:31:47;;;;;;;1.00;1.00;;;;;;;;;;8305504;28;20056;-64
2023/04/02 00:35:49;;;;;;;1.00;1.00;;;;;;;;;;8305393;28;20024;-64
2023/04/02 00:39:59;;;;;;;1.88;1.27;;;;;;;;;;8304439;28;20053;-64
2023/04/02 00:44:00;;;;;;;1.95;0.90;;;;;;;;;;8305295;28;20027;-64
2023/04/02 00:48:15;;;;;;;1.33;1.10;;;;;;;;;;8305658;28;20064;-64
2023/04/02 00:52:17;;;;;;;0.90;0.90;;;;;;;;;;8305672;28;20064;-64
2023/04/02 00:56:20;;;;;;;1.48;1.10;;;;;;;;;;8303089;28;20029;-64
2023/04/02 01:00:22;;;;;;;1.10;1.00;;;;;;;;;;8304177;28;20335;-64
2023/04/02 01:04:27;;;;;;;1.73;0.98;;;;;;;;;;8304540;28;20028;-64
2023/04/02 01:08:28;;;;;;;1.80;0.90;;;;;;;;;;8302118;28;20028;-64
2023/04/02 01:12:40;;;;;;;0.80;0.80;;;;;;;;;;8304192;28;20110;-64
2023/04/02 01:16:53;;;;;;;1.13;0.90;;;;;;;;;;8286689;28;20025;-64
2023/04/02 01:20:56;;;;;;;2.05;0.93;;;;;;;;;;8300667;28;20028;-64
2023/04/02 01:24:57;;;;;;;2.22;0.90;;;;;;;;;;8303169;28;20025;-64
2023/04/02 01:29:09;;;;;;;0.88;0.88;;;;;;;;;;8302331;28;20615;-64
2023/04/02 01:33:10;;;;;;;1.65;0.90;;;;;;;;;;8300168;28;20469;-64
2023/04/02 01:37:13;;;;;;;1.17;0.90;;;;;;;;;;8299588;28;20018;-64
2023/04/02 01:41:22;;;;;;;1.47;0.80;;;;;;;;;;8301907;28;20051;-64
2023/04/02 01:45:22;;;;;;;0.70;0.70;;;;;;;;;;8302276;28;20425;-64
2023/04/02 01:49:23;;;;;;;0.90;0.90;;;;;;;;;;8301546;28;20102;-64
2023/04/02 01:53:24;;;;;;;1.30;0.83;;;;;;;;;;8303331;28;20028;-64
2023/04/02 01:57:25;;;;;;;1.60;0.77;;;;;;;;;;8301448;28;20411;-64
2023/04/02 02:01:29;;;;;;;0.70;0.70;;;;;;;;;;8301507;28;20068;-64
2023/04/02 02:05:29;;;;;;;0.70;0.70;;;;;;;;;;8301150;28;20223;-64
2023/04/02 02:09:32;;;;;;;0.93;0.70;;;;;;;;;;8300693;28;20040;-64
2023/04/02 02:13:32;;;;;;;0.88;0.82;;;;;;;;;;8302292;28;20361;-64
2023/04/02 02:17:33;;;;;;;0.70;0.70;;;;;;;;;;8299033;28;20474;-64
2023/04/02 02:21:53;;;;;;;0.93;0.93;;;;;;;;;;8300079;28;20858;-64
2023/04/02 02:25:53;;;;;;;1.30;0.80;;;;;;;;;;8299142;28;20009;-64
2023/04/02 02:29:55;;;;;;;0.80;0.80;;;;;;;;;;8299341;28;20549;-64
2023/04/02 02:33:57;;;;;;;0.80;0.80;;;;;;;;;;8300399;28;20463;-64
2023/04/02 02:38:18;;;;;;;1.05;0.93;;;;;;;;;;8299680;28;20071;-64
2023/04/02 02:42:31;;;;;;;2.40;0.80;;;;;;;;;;8300073;28;20492;-64
2023/04/02 02:46:32;;;;;;;0.70;0.70;;;;;;;;;;8298096;28;20695;-64
2023/04/02 02:50:33;;;;;;;0.88;0.75;;;;;;;;;;8298587;28;20084;-64
2023/04/02 02:54:35;;;;;;;0.85;0.80;;;;;;;;;;8299622;28;20032;-64
2023/04/02 02:58:35;;;;;;;1.13;0.90;;;;;;;;;;8298035;28;20029;-64
2023/04/02 03:02:38;;;;;;;0.88;0.70;;;;;;;;;;8300268;28;20625;-64
2023/04/02 03:06:39;;;;;;;2.75;0.90;;;;;;;;;;8286401;28;20021;-64
2023/04/02 03:10:39;;;;;;;1.55;0.80;;;;;;;;;;8297209;28;20171;-64
2023/04/02 03:14:51;;;;;;;4.22;0.90;;;;;;;;;;8298244;28;20029;-64
2023/04/02 03:19:01;;;;;;;1.00;0.90;;;;;;;;;;8296737;28;20053;-64
2023/04/02 03:23:01;;;;;;;1.20;1.05;;;;;;;;;;8306377;28;20063;-64
2023/04/02 03:27:09;;;;;;;0.98;0.98;;;;;;;;;;8304440;28;20032;-64
2023/04/02 03:31:23;;;;;;;1.20;1.00;;;;;;;;;;8306234;28;20047;-64
2023/04/02 03:35:23;;;;;;;0.80;0.80;;;;;;;;;;8307057;28;20029;-64
2023/04/02 03:39:35;;;;;;;2.20;0.95;;;;;;;;;;8304976;28;20344;-64
2023/04/02 03:43:52;;;;;;;1.70;1.20;;;;;;;;;;8306206;28;20068;-64
2023/04/02 03:48:07;;;;;;;0.98;0.98;;;;;;;;;;8304596;28;20044;-64
2023/04/02 03:52:18;;;;;;;1.38;0.93;;;;;;;;;;8307997;28;20668;-64
2023/04/02 03:56:27;;;;;;;1.83;0.77;;;;;;;;;;8304428;28;20013;-64
2023/04/02 04:00:36;;;;;;;2.05;0.85;;;;;;;;;;8306458;28;20148;-64
2023/04/02 04:04:39;;;;;;;1.95;1.00;;;;;;;;;;8304766;28;20083;-64
2023/04/02 04:08:50;;;;;;;0.75;0.75;;;;;;;;;;8306263;28;20028;-64
2023/04/02 04:12:52;;;;;;;0.80;0.80;;;;;;;;;;8307919;28;20556;-64
2023/04/02 04:17:03;;;;;;;0.90;0.90;;;;;;;;;;8303743;28;20037;-64
2023/04/02 04:21:29;;;;;;;0.80;0.80;;;;;;;;;;8305413;28;20083;-64
2023/04/02 04:25:32;;;;;;;1.20;0.90;;;;;;;;;;8306857;28;20029;-64
2023/04/02 04:29:39;;;;;;;1.08;1.00;;;;;;;;;;8305934;28;20029;-64
2023/04/02 04:33:42;;;;;;;1.67;1.00;;;;;;;;;;8307605;28;20164;-64
2023/04/02 04:37:43;;;;;;;1.35;1.10;;;;;;;;;;8303548;28;20030;-64
2023/04/02 04:41:44;;;;;;;1.50;1.20;;;;;;;;;;8306742;28;20021;-64
2023/04/02 04:45:51;;;;;;;1.25;1.02;;;;;;;;;;8303752;28;20871;-64
2023/04/02 04:49:55;;;;;;;0.93;0.93;;;;;;;;;;8287175;28;20943;-64
2023/04/02 04:53:55;;;;;;;1.85;0.90;;;;;;;;;;8305053;28;20036;-64
2023/04/02 04:57:58;;;;;;;1.10;1.00;;;;;;;;;;8305554;28;20030;-64
2023/04/02 05:02:03;;;;;;;0.97;0.97;;;;;;;;;;8305321;28;21000;-64
2023/04/02 05:06:18;;;;;;;2.50;1.20;;;;;;;;;;8304008;28;20080;-64
2023/04/02 05:10:24;;;;;;;1.35;1.25;;;;;;;;;;8303932;28;20529;-64
2023/04/02 05:14:42;;;;;;;1.60;1.50;;;;;;;;;;8305136;28;20094;-64
2023/04/02 05:18:46;;;;;;;2.15;1.50;;;;;;;;;;8302470;28;20133;-64
2023/04/02 05:22:49;;;;;;;1.93;1.33;;;;;;;;;;8301395;28;20497;-64
2023/04/02 05:26:50;;;;;;;1.73;1.45;;;;;;;;;;8303188;28;20473;-65
2023/04/02 05:30:52;;;;;;;2.10;1.27;;;;;;;;;;8303993;28;20037;-64
2023/04/02 05:34:54;;;;;;;2.75;1.80;;;;;;;;;;8287060;28;20127;-64
2023/04/02 05:38:55;;;;;;;4.78;1.98;;;;;;;;;;8304086;28;20025;-64
2023/04/02 05:42:56;;;;;;;3.30;1.98;;;;;;;;;;8303864;28;20445;-64
2023/04/02 05:46:58;;;;;;;3.13;1.70;;;;;;;;;;8301576;28;20124;-64
2023/04/02 05:50:58;;;;;;;2.45;2.20;;;;;;;;;;8301167;28;20033;-64
2023/04/02 05:55:19;;;;;;;3.35;2.22;;;;;;;;;;8302494;28;20025;-64
2023/04/02 05:59:24;;;;;;;1.83;1.73;;;;;;;;;;8302067;28;20017;-64
2023/04/02 06:03:37;;;;;;;2.40;1.90;;;;;;;;;;8299629;28;20658;-64
2023/04/02 06:08:10;;;;;;;2.42;1.50;;;;;;;;;;8302874;28;20383;-64
2023/04/02 06:12:13;;;;;;;1.30;1.00;;;;;;;;;;8269973;28;20509;-64
2023/04/02 06:16:14;;;;;;;1.25;1.00;;;;;;;;;;8302196;28;20041;-64
2023/04/02 06:20:16;;;;;;;1.60;0.75;;;;;;;;;;8301981;28;20060;-65
2023/04/02 06:24:18;;;;;;;1.67;0.80;;;;;;;;;;8293053;28;20203;-64
2023/04/02 06:28:26;;;;;;;0.88;0.80;;;;;;;;;;8300447;28;20059;-64
2023/04/02 06:32:26;;;;;;;0.80;0.80;;;;;;;;;;8301702;28;20041;-64
2023/04/02 06:36:27;;;;;;;0.80;0.80;;;;;;;;;;8301058;28;20498;-64
2023/04/02 06:40:33;;;;;;;0.70;0.70;;;;;;;;;;8301643;28;20533;-64
2023/04/02 06:44:35;;;;;;;0.90;0.90;;;;;;;;;;8301233;28;20053;-64
2023/04/02 06:48:36;;;;;;;2.80;1.23;;;;;;;;;;8301576;28;20045;-64
2023/04/02 06:52:44;;;;;;;1.20;1.10;;;;;;;;;;8297119;28;20017;-64
2023/04/02 06:56:49;;;;;;;1.58;0.95;;;;;;;;;;8290306;28;20049;-64
2023/04/02 07:00:49;;;;;;;0.85;0.80;;;;;;;;;;8309502;28;20406;-64
2023/04/02 07:04:50;;;;;;;0.70;0.70;;;;;;;;;;8311396;28;20136;-64
2023/04/02 07:08:50;;;;;;;0.73;0.73;;;;;;;;;;8312809;28;20032;-64
2023/04/02 07:12:50;;;;;;;6.03;2.80;;;;;;;;;;8311877;28;20035;-65
2023/04/02 07:16:51;;;;;;;3.50;2.15;;;;;;;;;;8312805;28;20032;-64
2023/04/02 07:20:51;;;;;;;0.90;0.90;;;;;;;;;;8310887;28;20021;-64
2023/04/02 07:24:52;;;;;;;0.80;0.80;;;;;;;;;;8310487;28;20029;-65
2023/04/02 07:28:55;;;;;;;0.50;0.50;;;;;;;;;;8310856;28;20445;-64
2023/04/02 07:32:56;;;;;;;0.60;0.60;;;;;;;;;;8313008;28;20045;-64
2023/04/02 07:36:56;;;;;;;0.60;0.60;;;;;;;;;;8310856;28;20244;-64
2023/04/02 07:40:56;;;;;;;1.65;0.75;;;;;;;;;;8310264;28;20102;-64
2023/04/02 07:44:56;;;;;;;0.70;0.70;;;;;;;;;;8309412;28;20464;-65
2023/04/02 07:48:56;;;;;;;0.60;0.60;;;;;;;;;;8306543;28;20044;-64
2023/04/02 07:52:56;;;;;;;0.60;0.60;;;;;;;;;;8315596;28;20025;-65
2023/04/02 07:56:57;;;;;;;0.70;0.70;;;;;;;;;;8320048;28;20028;-64
2023/04/02 08:00:58;;;;;;;5.82;1.10;;;;;;;;;;8318753;28;20033;-64
2023/04/02 08:04:58;;;;;;;1.10;1.02;;;;;;;;;;8320259;28;20057;-64
2023/04/02 08:08:58;;;;;;;1.88;1.35;;;;;;;;;;8313363;28;20033;-64
2023/04/02 08:12:58;;;;;;;2.28;1.02;;;;;;;;;;8316449;28;20889;-64
2023/04/02 08:16:58;;;;;;;1.08;1.00;;;;;;;;;;8311458;28;20592;-64
2023/04/02 08:20:59;;;;;;;1.25;1.00;;;;;;;;;;8312637;28;20017;-65
2023/04/02 08:24:59;;;;;;;1.30;1.10;;;;;;;;;;8314617;28;20452;-65
2023/04/02 08:28:59;;;;;;;1.38;1.27;;;;;;;;;;8310553;28;20064;-65
2023/04/02 08:33:00;;;;;;;1.20;1.10;;;;;;;;;;8309843;28;20041;-65
2023/04/02 08:37:00;;;;;;;2.00;1.00;;;;;;;;;;8310893;28;20025;-65
2023/04/02 08:41:01;;;;;;;2.72;1.13;;;;;;;;;;8307173;28;20468;-65
2023/04/02 08:45:05;;;;;;;1.48;1.38;;;;;;;;;;8305981;28;20464;-64
2023/04/02 08:49:05;;;;;;;;;;;;;;;;;;8312881;28;20128;-64
2023/04/02 08:53:09;;;;;;;1.30;1.30;;;;;;;;;;8310948;28;19931;-64
2023/04/02 08:57:09;;;;;;;;;;;;;;;;;;8314274;28;20139;-64
2023/04/02 09:01:18;;;;;;;1.75;1.40;;;;;;;;;;8309189;28;20540;-64
2023/04/02 09:05:25;;;;;;;1.45;1.35;;;;;;;;;;8311265;28;20670;-64
2023/04/02 09:09:26;;;;;;;2.90;1.73;;;;;;;;;;8313955;28;20021;-64
2023/04/02 09:13:27;;;;;;;0.82;0.82;;;;;;;;;;8303461;28;20064;-64
2023/04/02 09:17:27;;;;;;;4.68;0.80;;;;;;;;;;8309407;28;20409;-63
2023/04/02 09:21:33;;;;;;;27.98;1.45;;;;;;;;;;8309133;28;20018;-64
2023/04/02 09:25:34;;;;;;;24.92;1.60;;;;;;;;;;8310878;28;20402;-64
2023/04/02 09:29:44;;;;;;;224.63;6.90;;;;;;;;;;8310854;28;20040;-64
2023/04/02 09:33:45;;;;;;;13.38;1.40;;;;;;;;;;8310173;28;20057;-64
2023/04/02 09:37:46;;;;;;;10.95;1.40;;;;;;;;;;8311260;28;20047;-64
2023/04/02 09:41:47;;;;;;;1.65;0.90;;;;;;;;;;8308651;28;20021;-64
2023/04/02 09:46:15;;;;;;;0.90;0.90;;;;;;;;;;8307678;28;20041;-64
2023/04/02 09:50:23;;;;;;;2.50;1.00;;;;;;;;;;8303585;28;20128;-64
2023/04/02 09:54:25;;;;;;;5.07;1.35;;;;;;;;;;8307660;28;20040;-64
2023/04/02 09:58:25;;;;;;;1.00;1.00;;;;;;;;;;8307707;28;20029;-64
2023/04/02 10:02:28;;;;;;;2.92;1.10;;;;;;;;;;8308864;28;20098;-64
2023/04/02 10:06:29;;;;;;;1.10;1.10;;;;;;;;;;8310194;28;20349;-64
2023/04/02 10:10:41;;;;;;;1.70;1.10;;;;;;;;;;8309330;28;20656;-65
2023/04/02 10:14:47;;;;;;;1.00;0.98;;;;;;;;;;8310130;28;20112;-64
2023/04/02 10:18:49;;;;;;;1.75;0.82;;;;;;;;;;8308375;28;20159;-64
2023/04/02 10:22:49;;;;;;;0.90;0.90;;;;;;;;;;8310694;28;20041;-65
2023/04/02 10:26:55;;;;;;;1.48;1.02;;;;;;;;;;8310030;28;20385;-64
2023/04/02 10:31:06;;;;;;;1.55;1.20;;;;;;;;;;8309759;28;20132;-65
2023/04/02 10:35:06;;;;;;;1.00;1.00;;;;;;;;;;8309708;28;20025;-64
2023/04/02 10:39:23;;;;;;;0.82;0.82;;;;;;;;;;8312849;28;20021;-64
2023/04/02 10:43:37;;;;;;;1.67;1.15;;;;;;;;;;8310045;28;20038;-64
2023/04/02 10:47:49;;;;;;;1.42;1.08;;;;;;;;;;8310720;28;20076;-64
2023/04/02 10:52:03;;;;;;;1.23;1.15;;;;;;;;;;8309771;28;20437;-64
2023/04/02 10:56:07;;;;;;;1.00;1.00;;;;;;;;;;8308819;28;20031;-64
2023/04/02 11:00:11;;;;;;;1.00;1.00;;;;;;;;;;8311019;28;20107;-64
2023/04/02 11:04:26;;;;;;;1.48;1.35;;;;;;;;;;8308129;28;20021;-65
2023/04/02 11:08:40;;;;;;;1.10;1.10;;;;;;;;;;8310432;28;20025;-64
2023/04/02 11:12:43;;;;;;;1.23;1.20;;;;;;;;;;8308712;28;20035;-64
2023/04/02 11:16:43;;;;;;;1.30;1.30;;;;;;;;;;8309777;28;20624;-64
2023/04/02 11:20:46;;;;;;;1.40;1.20;;;;;;;;;;8309576;28;20088;-64
2023/04/02 11:24:50;;;;;;;3.08;1.38;;;;;;;;;;8309204;28;20129;-64
2023/04/02 11:28:50;;;;;;;;;;;;;;;;;;8308972;28;20033;-64
2023/04/02 11:32:51;;;;;;;1.20;1.17;;;;;;;;;;8310342;28;19928;-64
2023/04/02 11:36:53;;;;;;;1.38;1.25;;;;;;;;;;8308515;28;20013;-64
2023/04/02 11:40:55;;;;;;;1.63;1.50;;;;;;;;;;8307707;28;20116;-64
2023/04/02 11:44:58;;;;;;;1.75;1.65;;;;;;;;;;8313904;28;20346;-64
2023/04/02 11:49:17;;;;;;;1.42;1.33;;;;;;;;;;8315308;28;20044;-64
2023/04/02 11:53:23;;;;;;;1.50;1.40;;;;;;;;;;8318001;28;20026;-65
2023/04/02 11:57:32;;;;;;;2.38;1.60;;;;;;;;;;8315501;28;20021;-65
2023/04/02 12:01:39;;;;;;;1.50;1.40;;;;;;;;;;8316492;28;20056;-64
2023/04/02 12:05:42;;;;;;;1.58;1.40;;;;;;;;;;8315278;28;20617;-64
2023/04/02 12:09:49;;;;;;;1.50;1.40;;;;;;;;;;8315434;28;20032;-64
2023/04/02 12:13:51;;;;;;;3.08;1.60;;;;;;;;;;8314249;28;20060;-64
2023/04/02 12:17:51;;;;;;;1.30;1.20;;;;;;;;;;8313724;28;20026;-64
2023/04/02 12:21:51;;;;;;;1.60;1.50;;;;;;;;;;8313787;28;20211;-64
2023/04/02 12:25:54;;;;;;;1.52;1.42;;;;;;;;;;8314283;28;20055;-64
2023/04/02 12:30:09;;;;;;;1.60;1.50;;;;;;;;;;8315485;28;20083;-64
2023/04/02 12:34:20;;;;;;;2.65;1.75;;;;;;;;;;8312985;28;20069;-64
2023/04/02 12:38:32;;;;;;;2.00;1.80;;;;;;;;;;8313899;28;20035;-64
2023/04/02 12:42:36;;;;;;;2.22;2.00;;;;;;;;;;8312939;28;20033;-64
2023/04/02 12:46:37;;;;;;;1.90;1.80;;;;;;;;;;8311363;28;20561;-65
2023/04/02 12:50:40;;;;;;;1.75;1.65;;;;;;;;;;8313784;28;20034;-64
2023/04/02 12:54:44;;;;;;;2.00;1.90;;;;;;;;;;8312744;28;20045;-64
2023/04/02 12:58:50;;;;;;;2.10;1.90;;;;;;;;;;8315455;28;20028;-65
2023/04/02 13:02:57;;;;;;;1.95;1.80;;;;;;;;;;8310150;28;20038;-64
2023/04/02 13:06:58;;;;;;;1.85;1.75;;;;;;;;;;8305935;28;20124;-64
2023/04/02 13:11:02;;;;;;;1.83;1.67;;;;;;;;;;8305241;28;20135;-64
2023/04/02 13:15:04;;;;;;;1.85;1.75;;;;;;;;;;8303265;28;20123;-65
2023/04/02 13:19:19;;;;;;;1.95;1.85;;;;;;;;;;8304822;28;20067;-64
2023/04/02 13:23:28;;;;;;;1.75;1.65;;;;;;;;;;8300975;28;20060;-64
2023/04/02 13:27:28;;;;;;;1.85;1.75;;;;;;;;;;8305864;28;20525;-64
2023/04/02 13:31:30;;;;;;;1.67;1.58;;;;;;;;;;8303302;28;20642;-64
2023/04/02 13:35:30;;;;;;;1.80;1.70;;;;;;;;;;8307627;28;21325;-64
2023/04/02 13:39:31;;;;;;;2.10;2.00;;;;;;;;;;8291801;28;20053;-64
2023/04/02 13:43:31;;;;;;;2.00;1.90;;;;;;;;;;8304404;28;20060;-64
2023/04/02 13:47:31;;;;;;;2.47;1.77;;;;;;;;;;8307221;28;20049;-64
2023/04/02 13:51:36;;;;;;;2.58;2.38;;;;;;;;;;8303364;28;20064;-64
2023/04/02 13:55:38;;;;;;;2.30;2.10;;;;;;;;;;8303097;28;20024;-64
2023/04/02 13:59:39;;;;;;;2.42;2.22;;;;;;;;;;8302661;28;20113;-64
2023/04/02 14:03:40;;;;;;;2.22;2.03;;;;;;;;;;8297635;28;20053;-64
2023/04/02 14:07:55;;;;;;;2.08;1.95;;;;;;;;;;8291771;28;20032;-64
2023/04/02 14:12:10;;;;;;;2.47;2.28;;;;;;;;;;8285542;28;20286;-64
2023/04/02 14:16:14;;;;;;;2.35;2.15;;;;;;;;;;8300410;28;20059;-64
2023/04/02 14:20:18;;;;;;;4.10;2.37;;;;;;;;;;8286837;28;20465;-64
2023/04/02 14:24:36;;;;;;;2.50;2.30;;;;;;;;;;8282180;28;20063;-64
2023/04/02 14:28:56;;;;;;;2.80;2.17;;;;;;;;;;8302441;28;20033;-64
2023/04/02 14:33:26;;;;;;;2.65;2.25;;;;;;;;;;8300261;28;20025;-64
2023/04/02 14:37:38;;;;;;;2.45;2.25;;;;;;;;;;8232069;28;20033;-64
2023/04/02 14:41:57;;;;;;;2.22;2.08;;;;;;;;;;8286735;28;20594;-64
2023/04/02 14:45:59;;;;;;;2.47;2.28;;;;;;;;;;8305644;28;20139;-64
2023/04/02 14:50:23;;;;;;;2.60;2.40;;;;;;;;;;8302110;28;20029;-64
2023/04/02 14:54:33;;;;;;;4.68;2.30;;;;;;;;;;8298795;28;20562;-64
2023/04/02 14:58:36;;;;;;;2.58;2.38;;;;;;;;;;8305752;28;20036;-64
2023/04/02 15:02:36;;;;;;;4.80;2.95;;;;;;;;;;8291566;28;20110;-64
2023/04/02 15:06:40;;;;;;;2.92;2.70;;;;;;;;;;8301145;28;20029;-64
2023/04/02 15:10:50;;;;;;;2.75;2.55;;;;;;;;;;8300227;28;20116;-63
2023/04/02 15:14:54;;;;;;;3.25;2.95;;;;;;;;;;8307999;28;20029;-64
2023/04/02 15:18:55;;;;;;;2.95;2.63;;;;;;;;;;8303040;28;20033;-64
2023/04/02 15:23:03;;;;;;;3.35;2.97;;;;;;;;;;8289371;28;20021;-64
2023/04/02 15:27:31;;;;;;;4.13;2.90;;;;;;;;;;8304312;28;20043;-64
2023/04/02 15:31:33;;;;;;;4.43;3.10;;;;;;;;;;8303737;28;20542;-63
2023/04/02 15:35:42;;;;;;;5.95;3.50;;;;;;;;;;8307953;28;20121;-63
2023/04/02 15:39:48;;;;;;;4.53;3.50;;;;;;;;;;8307909;28;20441;-63
2023/04/02 15:43:55;;;;;;;4.40;3.60;;;;;;;;;;8308318;28;20531;-63
2023/04/02 15:48:01;;;;;;;4.07;3.65;;;;;;;;;;8305610;28;20136;-63
2023/04/02 15:52:08;;;;;;;5.15;4.32;;;;;;;;;;8306995;28;20595;-64
2023/04/02 15:56:17;;;;;;;4.90;4.38;;;;;;;;;;8307528;28;20025;-64
2023/04/02 16:00:17;;;;;;;4.97;4.03;;;;;;;;;;8306010;28;20056;-64
2023/04/02 16:04:17;;;;;;;4.57;4.07;;;;;;;;;;8308138;28;20036;-63
2023/04/02 16:08:17;;;;;;;6.90;4.38;;;;;;;;;;8303802;28;20120;-63
2023/04/02 16:12:19;;;;;;;6.13;4.05;;;;;;;;;;8307207;28;20277;-64
2023/04/02 16:16:19;;;;;;;5.85;4.80;;;;;;;;;;8305395;28;20025;-63
2023/04/02 16:20:27;;;;;;;4.63;4.22;;;;;;;;;;8303019;28;20035;-63
2023/04/02 16:24:28;;;;;;;5.85;4.20;;;;;;;;;;8303221;28;20013;-63
2023/04/02 16:28:32;;;;;;;7.80;4.75;;;;;;;;;;8302785;28;20557;-63
2023/04/02 16:32:38;;;;;;;5.30;4.80;;;;;;;;;;8304016;28;20045;-63
2023/04/02 16:36:56;;;;;;;4.20;3.85;;;;;;;;;;8305421;28;20018;-63
2023/04/02 16:41:08;;;;;;;6.57;3.70;;;;;;;;;;8304615;28;20667;-63
2023/04/02 16:45:17;;;;;;;5.43;3.50;;;;;;;;;;8291092;28;20021;-63
2023/04/02 16:49:42;;;;;;;7.57;3.35;;;;;;;;;;8304245;28;20025;-63
2023/04/02 16:53:51;;;;;;;3.78;3.30;;;;;;;;;;8304264;28;20028;-63
2023/04/02 16:57:57;;;;;;;3.70;3.03;;;;;;;;;;8304680;28;20516;-63
2023/04/02 17:02:09;;;;;;;4.25;3.10;;;;;;;;;;8303351;28;20044;-63
2023/04/02 17:06:23;;;;;;;5.85;3.35;;;;;;;;;;8303010;28;20518;-63
2023/04/02 17:10:30;;;;;;;3.83;3.15;;;;;;;;;;8303186;28;20592;-63
2023/04/02 17:14:35;;;;;;;4.47;3.33;;;;;;;;;;8304351;28;20292;-64
2023/04/02 17:18:36;;;;;;;5.13;3.15;;;;;;;;;;8302129;28;20790;-63
2023/04/02 17:22:36;;;;;;;7.45;2.95;;;;;;;;;;8305441;28;20037;-63
2023/04/02 17:26:37;;;;;;;3.45;2.83;;;;;;;;;;8303605;28;20334;-63
2023/04/02 17:30:42;;;;;;;4.47;3.15;;;;;;;;;;8303624;28;20111;-63
2023/04/02 17:34:42;;;;;;;4.32;2.80;;;;;;;;;;8303766;28;20472;-63
2023/04/02 17:38:51;;;;;;;4.43;2.90;;;;;;;;;;8302566;28;20430;-63
2023/04/02 17:43:01;;;;;;;3.10;2.72;;;;;;;;;;8304189;28;20033;-63
2023/04/02 17:47:19;;;;;;;3.75;2.88;;;;;;;;;;8302580;28;20071;-63
2023/04/02 17:51:20;;;;;;;3.65;2.85;;;;;;;;;;8302214;28;20047;-63
2023/04/02 17:55:26;;;;;;;3.33;2.75;;;;;;;;;;8304113;28;20056;-63
2023/04/02 17:59:33;;;;;;;3.70;2.80;;;;;;;;;;8299754;28;20063;-63
2023/04/02 18:03:46;;;;;;;8.18;3.58;;;;;;;;;;8305822;28;20037;-63
2023/04/02 18:07:55;;;;;;;5.10;3.90;;;;;;;;;;8307805;28;20558;-63
2023/04/02 18:11:56;;;;;;;4.32;3.42;;;;;;;;;;8298097;28;20033;-63
2023/04/02 18:16:08;;;;;;;3.45;3.10;;;;;;;;;;8297540;28;20243;-63
2023/04/02 18:20:14;;;;;;;5.38;3.00;;;;;;;;;;8297566;28;20036;-63
2023/04/02 18:24:26;;;;;;;6.20;3.30;;;;;;;;;;8297286;28;20018;-63
2023/04/02 18:28:26;;;;;;;4.47;2.85;;;;;;;;;;8298891;28;20033;-63
2023/04/02 18:32:27;;;;;;;7.50;3.00;;;;;;;;;;8295759;28;20514;-63
2023/04/02 18:36:38;;;;;;;4.07;3.20;;;;;;;;;;8298331;28;20569;-63
2023/04/02 18:40:53;;;;;;;4.53;3.20;;;;;;;;;;8297375;28;20013;-63
2023/04/02 18:45:00;;;;;;;3.25;2.63;;;;;;;;;;8293209;28;20029;-63
2023/04/02 18:49:04;;;;;;;5.25;3.00;;;;;;;;;;8294869;28;20037;-63
2023/04/02 18:53:12;;;;;;;3.45;2.75;;;;;;;;;;8297868;28;20037;-63
2023/04/02 18:57:23;;;;;;;3.10;2.80;;;;;;;;;;8296039;28;20346;-63
2023/04/02 19:01:32;;;;;;;3.45;3.08;;;;;;;;;;8296478;28;20148;-63
2023/04/02 19:05:39;;;;;;;3.47;2.90;;;;;;;;;;8296428;28;20040;-63
2023/04/02 19:09:41;;;;;;;5.03;3.20;;;;;;;;;;8296744;28;20411;-63
2023/04/02 19:13:43;;;;;;;4.13;2.95;;;;;;;;;;8296467;28;20029;-63
2023/04/02 19:17:57;;;;;;;3.67;3.00;;;;;;;;;;8295769;28;20462;-63
2023/04/02 19:22:03;;;;;;;5.75;3.03;;;;;;;;;;8295524;28;20027;-63
2023/04/02 19:26:08;;;;;;;4.68;3.03;;;;;;;;;;8298723;28;20412;-62
2023/04/02 19:30:27;;;;;;;3.75;2.78;;;;;;;;;;8296357;28;20036;-63
2023/04/02 19:34:36;;;;;;;5.15;3.40;;;;;;;;;;8296824;28;20056;-63
2023/04/02 19:38:45;;;;;;;4.43;3.28;;;;;;;;;;8297652;28;20022;-63
2023/04/02 19:42:46;;;;;;;3.67;3.10;;;;;;;;;;8296046;28;20026;-63
2023/04/02 19:46:47;;;;;;;4.10;2.90;;;;;;;;;;8295803;28;20160;-63
2023/04/02 19:50:48;;;;;;;2.95;2.65;;;;;;;;;;8292425;28;20061;-63
2023/04/02 19:54:48;;;;;;;3.05;2.72;;;;;;;;;;8292926;28;20204;-63
2023/04/02 19:58:48;;;;;;;4.40;2.55;;;;;;;;;;8297406;28;20025;-62
2023/04/02 20:02:48;;;;;;;5.30;3.10;;;;;;;;;;8299972;28;20047;-63
2023/04/02 20:06:48;;;;;;;2.90;2.70;;;;;;;;;;8307540;28;20020;-63
2023/04/02 20:10:49;;;;;;;8.82;2.90;;;;;;;;;;8306777;28;20024;-63
2023/04/02 20:14:49;;;;;;;2.95;2.60;;;;;;;;;;8306009;28;20029;-63
2023/04/02 20:18:50;;;;;;;5.13;2.80;;;;;;;;;;8303565;28;20493;-63
2023/04/02 20:22:50;;;;;;;6.15;2.90;;;;;;;;;;8305619;28;20033;-63
2023/04/02 20:26:50;;;;;;;5.00;2.45;;;;;;;;;;8303881;28;20334;-63
2023/04/02 20:30:51;;;;;;;5.80;2.90;;;;;;;;;;8304879;28;20041;-63
2023/04/02 20:34:52;;;;;;;3.70;2.53;;;;;;;;;;8303458;28;20507;-63
2023/04/02 20:38:53;;;;;;;3.55;2.40;;;;;;;;;;8303648;28;20095;-63
2023/04/02 20:42:53;;;;;;;3.30;2.58;;;;;;;;;;8302340;28;20639;-63
2023/04/02 20:46:53;;;;;;;3.90;2.78;;;;;;;;;;8303255;28;20041;-63
2023/04/02 20:50:54;;;;;;;3.15;2.33;;;;;;;;;;8302356;28;20031;-63
2023/04/02 20:54:55;;;;;;;2.50;2.30;;;;;;;;;;8300500;28;20039;-63
2023/04/02 20:58:55;;;;;;;5.10;2.75;;;;;;;;;;8300503;28;20557;-63
2023/04/02 21:02:56;;;;;;;3.40;2.50;;;;;;;;;;8302943;28;20134;-63
2023/04/02 21:06:56;;;;;;;2.72;2.50;;;;;;;;;;8301438;28;20097;-63
2023/04/02 21:11:00;;;;;;;3.05;2.22;;;;;;;;;;8290990;28;20119;-63
2023/04/02 21:15:00;;;;;;;3.42;2.22;;;;;;;;;;8303200;28;20036;-63
2023/04/02 21:19:02;;;;;;;3.20;2.35;;;;;;;;;;8303846;28;20522;-63
2023/04/02 21:23:02;;;;;;;2.88;2.30;;;;;;;;;;8301452;28;20025;-63
2023/04/02 21:27:02;;;;;;;2.25;2.05;;;;;;;;;;8302294;28;20036;-63
2023/04/02 21:31:04;;;;;;;2.20;2.00;;;;;;;;;;8299114;28;20255;-63
2023/04/02 21:35:04;;;;;;;2.85;2.13;;;;;;;;;;8303612;28;20218;-63
2023/04/02 21:39:06;;;;;;;3.47;2.15;;;;;;;;;;8301056;28;20040;-63
2023/04/02 21:43:06;;;;;;;2.05;1.85;;;;;;;;;;8303112;28;20061;-63
2023/04/02 21:47:07;;;;;;;3.72;2.33;;;;;;;;;;8310565;28;20072;-63
2023/04/02 21:51:08;;;;;;;1.80;1.70;;;;;;;;;;8307947;28;20044;-63
2023/04/02 21:55:08;;;;;;;4.22;1.98;;;;;;;;;;8310287;28;20033;-63
2023/04/02 21:59:09;;;;;;;3.15;2.20;;;;;;;;;;8308933;28;20025;-63
2023/04/02 22:03:09;;;;;;;2.22;2.03;;;;;;;;;;8311194;28;20044;-63
2023/04/02 22:07:10;;;;;;;2.25;2.05;;;;;;;;;;8293239;28;20022;-63
2023/04/02 22:11:13;;;;;;;2.78;2.30;;;;;;;;;;8308578;28;20036;-63
2023/04/02 22:15:14;;;;;;;2.95;2.28;;;;;;;;;;8310426;28;20032;-63
2023/04/02 22:19:14;;;;;;;3.10;1.98;;;;;;;;;;8307674;28;20452;-63
2023/04/02 22:23:15;;;;;;;2.97;1.90;;;;;;;;;;8310001;28;20033;-63
2023/04/02 22:27:15;;;;;;;2.83;2.17;;;;;;;;;;8308284;28;20178;-63
2023/04/02 22:31:17;;;;;;;3.10;2.00;;;;;;;;;;8309274;28;20444;-63
2023/04/02 22:35:17;;;;;;;2.95;2.08;;;;;;;;;;8307707;28;20028;-63
2023/04/02 22:39:17;;;;;;;5.05;2.40;;;;;;;;;;8310097;28;20661;-63
2023/04/02 22:43:17;;;;;;;3.53;2.00;;;;;;;;;;8308673;28;20095;-63
2023/04/02 22:47:18;;;;;;;2.78;2.10;;;;;;;;;;8309691;28;20048;-63
2023/04/02 22:51:19;;;;;;;3.20;2.10;;;;;;;;;;8306313;28;20413;-63
2023/04/02 22:55:19;;;;;;;3.65;2.10;;;;;;;;;;8310867;28;20032;-63
2023/04/02 22:59:19;;;;;;;2.65;2.22;;;;;;;;;;8300937;28;20599;-63
2023/04/02 23:03:20;;;;;;;2.10;1.80;;;;;;;;;;8301517;28;20044;-63
2023/04/02 23:07:20;;;;;;;2.40;1.95;;;;;;;;;;8302026;28;20653;-63
2023/04/02 23:11:22;;;;;;;2.55;2.20;;;;;;;;;;8300143;28;20025;-63
2023/04/02 23:15:22;;;;;;;5.53;2.03;;;;;;;;;;8300457;28;21079;-63
2023/04/02 23:19:22;;;;;;;2.10;1.95;;;;;;;;;;8300802;28;20132;-63
2023/04/02 23:23:23;;;;;;;2.60;1.70;;;;;;;;;;8299614;28;20030;-63
2023/04/02 23:27:23;;;;;;;2.38;2.00;;;;;;;;;;8301352;28;20091;-63
2023/04/02 23:31:23;;;;;;;4.38;2.08;;;;;;;;;;8299295;28;20508;-63
2023/04/02 23:35:23;;;;;;;3.55;2.00;;;;;;;;;;8301312;28;20116;-63
2023/04/02 23:39:24;;;;;;;3.45;2.30;;;;;;;;;;8305388;28;20033;-63
2023/04/02 23:43:24;;;;;;;2.00;1.90;;;;;;;;;;8307142;28;20286;-63
2023/04/02 23:47:24;;;;;;;3.53;1.88;;;;;;;;;;8306324;28;20052;-63
2023/04/02 23:51:24;;;;;;;4.07;1.98;;;;;;;;;;8303019;28;20478;-63
2023/04/02 23:55:25;;;;;;;2.75;2.03;;;;;;;;;;8306059;28;20044;-63
2023/04/02 23:59:25;;;;;;;2.38;2.10;;;;;;;;;;8306444;28;20026;-63
